Time;durP1;ratioP1;P1;durP2;ratioP2;P2;SDS_P1;SDS_P2;PMS_P1;PMS_P2;Temp;Humidity;BMP_temperature;BMP_pressure;BME280_temperature;BME280_humidity;BME280_pressure;Samples;Min_cycle;Max_cycle;Signal;HPM_P1;HPM_P2
2023/04/27 00:01:19;;;;;;;1.00;1.00;;;;;;;11.56;100.00;99865.81;5083640;28;20202;-73
2023/04/27 00:03:46;;;;;;;0.68;0.68;;;;;;;11.48;100.00;99862.28;5058504;28;20198;-72
2023/04/27 00:06:12;;;;;;;0.60;0.60;;;;;;;11.61;100.00;99853.72;5094270;28;20195;-73
2023/04/27 00:08:41;;;;;;;0.60;0.60;;;;;;;11.72;100.00;99867.69;5094404;28;20214;-72
2023/04/27 00:11:08;;;;;;;0.60;0.60;;;;;;;11.70;100.00;99874.59;5094309;28;20275;-72
2023/04/27 00:13:35;;;;;;;0.70;0.70;;;;;;;11.66;100.00;99876.28;5094375;28;20276;-72
2023/04/27 00:16:02;;;;;;;0.60;0.60;;;;;;;11.50;100.00;99860.56;5093806;28;20205;-73
2023/04/27 00:18:29;;;;;;;0.70;0.70;;;;;;;11.77;100.00;99881.59;5094021;28;20677;-73
2023/04/27 00:20:56;;;;;;;0.60;0.60;;;;;;;11.77;100.00;99879.00;5091616;28;20198;-73
2023/04/27 00:23:23;;;;;;;0.70;0.70;;;;;;;11.87;100.00;99886.00;5074725;28;20217;-73
2023/04/27 00:25:51;;;;;;;0.60;0.60;;;;;;;12.03;100.00;99880.00;5093618;28;20208;-73
2023/04/27 00:28:18;;;;;;;0.60;0.60;;;;;;;12.04;100.00;99886.97;5093504;28;20535;-73
2023/04/27 00:30:45;;;;;;;0.70;0.70;;;;;;;12.12;100.00;99885.28;5093678;28;20634;-73
2023/04/27 00:33:12;;;;;;;0.60;0.60;;;;;;;12.05;100.00;99899.09;5093761;28;20213;-73
2023/04/27 00:35:38;;;;;;;0.55;0.55;;;;;;;12.04;100.00;99899.94;5057480;28;20198;-73
2023/04/27 00:38:05;;;;;;;0.60;0.60;;;;;;;11.95;100.00;99897.28;5074933;28;20213;-73
2023/04/27 00:40:32;;;;;;;0.60;0.60;;;;;;;11.92;100.00;99886.88;5057674;28;20611;-73
2023/04/27 00:43:00;;;;;;;0.60;0.60;;;;;;;12.17;100.00;99906.94;5093607;28;20206;-73
2023/04/27 00:45:27;;;;;;;0.60;0.60;;;;;;;12.04;100.00;99901.69;5093163;28;20237;-73
2023/04/27 00:47:54;;;;;;;0.80;0.80;;;;;;;12.13;100.00;99912.13;5093238;28;20547;-73
2023/04/27 00:50:28;;;;;;;0.60;0.60;;;;;;;12.03;100.00;99916.38;5093636;28;20206;-73
2023/04/27 00:52:55;;;;;;;0.60;0.60;;;;;;;11.73;100.00;99917.06;5092588;28;20232;-74
2023/04/27 00:55:22;;;;;;;0.60;0.60;;;;;;;11.78;100.00;99911.88;5069994;28;20210;-73
2023/04/27 00:57:49;;;;;;;0.60;0.60;;;;;;;11.61;100.00;99908.25;5092035;28;20202;-73
2023/04/27 01:00:18;;;;;;;0.50;0.50;;;;;;;12.01;100.00;99938.91;5090566;28;20225;-73
2023/04/27 01:02:44;;;;;;;0.60;0.60;;;;;;;11.73;100.00;99906.69;5093477;28;20273;-73
2023/04/27 01:05:12;;;;;;;0.60;0.60;;;;;;;11.99;100.00;99951.00;5093259;28;20202;-73
2023/04/27 01:07:39;;;;;;;0.63;0.63;;;;;;;12.03;100.00;99941.50;5093006;28;20229;-73
2023/04/27 01:10:07;;;;;;;0.68;0.68;;;;;;;12.01;100.00;99946.72;5093473;28;20202;-73
2023/04/27 01:12:34;;;;;;;0.60;0.60;;;;;;;11.96;100.00;99951.00;5092784;28;20598;-73
2023/04/27 01:15:00;;;;;;;0.60;0.60;;;;;;;11.78;100.00;99963.84;5057043;28;20304;-73
2023/04/27 01:17:29;;;;;;;0.60;0.60;;;;;;;11.80;100.00;99965.59;5092747;28;20199;-73
2023/04/27 01:19:56;;;;;;;0.68;0.68;;;;;;;11.65;100.00;99969.75;5092869;28;20237;-73
2023/04/27 01:22:23;;;;;;;0.60;0.60;;;;;;;11.68;100.00;99975.84;5092274;28;20194;-73
2023/04/27 01:24:52;;;;;;;0.60;0.60;;;;;;;11.65;100.00;99944.66;5092183;28;20202;-74
2023/04/27 01:27:19;;;;;;;0.60;0.60;;;;;;;11.65;100.00;99954.19;5092179;28;20650;-73
2023/04/27 01:29:46;;;;;;;0.80;0.80;;;;;;;11.82;100.00;99974.28;5092212;28;20198;-73
2023/04/27 01:32:12;;;;;;;0.60;0.60;;;;;;;11.78;100.00;99966.44;5057089;28;20194;-73
2023/04/27 01:34:39;;;;;;;0.60;0.60;;;;;;;11.93;100.00;99976.94;5052925;28;20199;-73
2023/04/27 01:37:06;;;;;;;0.60;0.60;;;;;;;12.02;100.00;99990.00;5049566;28;20218;-72
2023/04/27 01:39:33;;;;;;;0.60;0.60;;;;;;;12.06;100.00;99978.78;5091673;28;20218;-72
2023/04/27 01:42:02;;;;;;;0.60;0.60;;;;;;;11.77;100.00;99954.31;5091223;28;20607;-73
2023/04/27 01:44:29;;;;;;;0.60;0.60;;;;;;;11.96;100.00;99974.38;5092148;28;20222;-72
2023/04/27 01:46:56;;;;;;;0.60;0.60;;;;;;;12.02;100.00;99978.75;5092322;28;20607;-72
2023/04/27 01:49:23;;;;;;;0.70;0.70;;;;;;;12.00;100.00;99989.13;5092216;28;20205;-73
2023/04/27 01:51:50;;;;;;;0.70;0.70;;;;;;;11.93;100.00;99987.34;5092184;28;20201;-72
2023/04/27 01:54:17;;;;;;;0.70;0.70;;;;;;;11.75;100.00;99989.78;5091677;28;20198;-72
2023/04/27 01:56:43;;;;;;;0.52;0.52;;;;;;;11.73;100.00;99994.13;5091926;28;20206;-72
2023/04/27 01:59:12;;;;;;;0.75;0.75;;;;;;;11.69;100.00;99989.72;5091810;28;20214;-73
2023/04/27 02:01:38;;;;;;;0.60;0.60;;;;;;;11.37;100.00;99985.09;5091898;28;20198;-72
2023/04/27 02:04:05;;;;;;;0.50;0.50;;;;;;;11.29;100.00;99976.34;5091806;28;20194;-72
2023/04/27 02:06:32;;;;;;;0.60;0.60;;;;;;;11.39;100.00;99987.69;5092033;28;20581;-72
2023/04/27 02:08:59;;;;;;;0.70;0.70;;;;;;;11.21;100.00;99985.75;5091965;28;20206;-73
2023/04/27 02:11:26;;;;;;;0.70;0.70;;;;;;;11.45;100.00;99980.81;5090678;28;20209;-72
2023/04/27 02:13:53;;;;;;;0.63;0.63;;;;;;;11.49;100.00;99983.44;5091525;28;20198;-73
2023/04/27 02:16:21;;;;;;;0.80;0.80;;;;;;;11.52;100.00;99986.09;5091840;28;20198;-73
2023/04/27 02:18:47;;;;;;;0.70;0.70;;;;;;;11.44;100.00;99983.41;5055842;28;20201;-73
2023/04/27 02:21:14;;;;;;;0.60;0.60;;;;;;;11.67;100.00;99988.81;5072690;28;20582;-73
2023/04/27 02:23:41;;;;;;;0.55;0.55;;;;;;;11.54;100.00;99994.75;5091194;28;20213;-73
2023/04/27 02:26:08;;;;;;;0.63;0.63;;;;;;;11.63;100.00;99998.28;5091671;28;20206;-73
2023/04/27 02:28:35;;;;;;;0.52;0.52;;;;;;;11.50;100.00;99995.56;5091462;28;20198;-73
2023/04/27 02:31:01;;;;;;;0.60;0.60;;;;;;;11.45;100.00;99988.59;5090527;28;20190;-73
2023/04/27 02:33:30;;;;;;;0.70;0.70;;;;;;;11.66;100.00;100005.25;5087731;28;20673;-73
2023/04/27 02:35:57;;;;;;;0.65;0.65;;;;;;;10.99;100.00;99923.25;5091293;28;20205;-72
2023/04/27 02:38:23;;;;;;;0.68;0.68;;;;;;;11.50;100.00;99993.84;5091348;28;20206;-72
2023/04/27 02:40:53;;;;;;;0.60;0.60;;;;;;;11.71;100.00;99995.81;5091453;28;20221;-72
2023/04/27 02:43:20;;;;;;;0.50;0.50;;;;;;;11.70;100.00;100001.84;5072154;28;20640;-72
2023/04/27 02:45:47;;;;;;;0.65;0.65;;;;;;;11.47;100.00;100009.41;5090490;28;20226;-72
2023/04/27 02:48:14;;;;;;;0.65;0.65;;;;;;;11.29;100.00;100004.88;5091306;28;20267;-72
2023/04/27 02:50:43;;;;;;;0.70;0.70;;;;;;;11.55;100.00;100005.16;5087792;28;20639;-72
2023/04/27 02:53:10;;;;;;;0.50;0.50;;;;;;;11.50;100.00;100005.97;5089242;28;20202;-72
2023/04/27 02:55:37;;;;;;;0.60;0.60;;;;;;;11.43;100.00;99979.06;5090836;28;20206;-72
2023/04/27 02:58:04;;;;;;;0.70;0.70;;;;;;;11.26;100.00;99986.69;5055453;28;20215;-73
2023/04/27 03:00:30;;;;;;;0.80;0.80;;;;;;;11.20;100.00;99986.59;5090264;28;20316;-72
2023/04/27 03:02:57;;;;;;;0.68;0.68;;;;;;;11.32;100.00;100006.63;5066240;28;20267;-72
2023/04/27 03:05:27;;;;;;;0.68;0.68;;;;;;;11.36;100.00;100001.50;5088091;28;20202;-72
2023/04/27 03:07:55;;;;;;;0.68;0.68;;;;;;;11.30;100.00;99983.28;5091142;28;20673;-72
2023/04/27 03:10:22;;;;;;;0.70;0.70;;;;;;;11.34;100.00;100010.97;5090335;28;20266;-73
2023/04/27 03:12:48;;;;;;;0.60;0.60;;;;;;;11.29;100.00;99989.31;5090852;28;20201;-72
2023/04/27 03:15:15;;;;;;;0.70;0.70;;;;;;;11.49;100.00;100017.19;5090341;28;20213;-72
2023/04/27 03:17:42;;;;;;;0.70;0.70;;;;;;;11.49;100.00;100012.88;5089827;28;20206;-72
2023/04/27 03:20:11;;;;;;;0.60;0.60;;;;;;;11.67;100.00;100014.78;5090306;28;20641;-73
2023/04/27 03:22:37;;;;;;;0.60;0.60;;;;;;;11.50;100.00;100022.41;5089865;28;20580;-73
2023/04/27 03:25:07;;;;;;;0.60;0.60;;;;;;;11.72;100.00;100024.41;5090602;28;20244;-73
2023/04/27 03:27:33;;;;;;;0.60;0.60;;;;;;;11.57;100.00;100026.81;5055117;28;20603;-73
2023/04/27 03:30:00;;;;;;;0.60;0.60;;;;;;;11.40;100.00;100026.66;5088974;28;20220;-73
2023/04/27 03:32:27;;;;;;;0.70;0.70;;;;;;;11.36;100.00;100026.59;5089820;28;20198;-73
2023/04/27 03:34:55;;;;;;;0.60;0.60;;;;;;;11.52;100.00;100030.22;5090031;28;20205;-73
2023/04/27 03:37:21;;;;;;;0.60;0.60;;;;;;;11.59;100.00;100032.03;5089631;28;20206;-73
2023/04/27 03:39:48;;;;;;;0.60;0.60;;;;;;;11.31;100.00;100010.09;5071194;28;20724;-73
2023/04/27 03:42:16;;;;;;;0.90;0.90;;;;;;;11.34;100.00;100026.56;5090023;28;20669;-73
2023/04/27 03:44:43;;;;;;;0.70;0.70;;;;;;;11.10;100.00;100008.13;5090113;28;20288;-73
2023/04/27 03:47:10;;;;;;;0.70;0.70;;;;;;;11.14;100.00;100035.84;5088984;28;20308;-73
2023/04/27 03:49:37;;;;;;;0.70;0.70;;;;;;;11.31;100.00;100025.66;5088912;28;20315;-73
2023/04/27 03:52:04;;;;;;;0.70;0.70;;;;;;;11.28;100.00;100021.31;5089616;28;20198;-74
2023/04/27 03:54:31;;;;;;;0.70;0.70;;;;;;;11.40;100.00;100037.03;5090020;28;20249;-73
2023/04/27 03:56:58;;;;;;;0.60;0.60;;;;;;;11.57;100.00;100028.53;5090259;28;20233;-73
2023/04/27 03:59:29;;;;;;;0.50;0.50;;;;;;;11.42;100.00;100040.50;5090174;28;20361;-73
2023/04/27 04:01:57;;;;;;;0.70;0.70;;;;;;;11.22;100.00;100039.41;5088899;28;20236;-73
2023/04/27 04:04:23;;;;;;;0.60;0.60;;;;;;;11.28;100.00;100036.88;5089583;28;20240;-73
2023/04/27 04:06:50;;;;;;;0.60;0.60;;;;;;;11.26;100.00;100048.97;5067384;28;20639;-74
2023/04/27 04:09:17;;;;;;;0.65;0.65;;;;;;;11.14;100.00;100043.63;5065064;28;20234;-74
2023/04/27 04:11:44;;;;;;;0.70;0.70;;;;;;;11.00;100.00;100055.56;5083053;28;20255;-74
2023/04/27 04:14:11;;;;;;;0.60;0.60;;;;;;;11.10;100.00;100052.22;5090339;28;20210;-75
2023/04/27 04:16:39;;;;;;;0.70;0.70;;;;;;;11.08;100.00;100050.47;5089582;28;20218;-74
2023/04/27 04:19:06;;;;;;;0.60;0.60;;;;;;;11.15;100.00;100034.13;5090016;28;20229;-74
2023/04/27 04:21:33;;;;;;;0.70;0.70;;;;;;;11.51;100.00;100064.81;5054517;28;20291;-74
2023/04/27 04:23:59;;;;;;;0.60;0.60;;;;;;;11.44;100.00;100061.31;5051422;28;20727;-74
2023/04/27 04:26:26;;;;;;;0.70;0.70;;;;;;;11.44;100.00;100067.38;5058149;28;20586;-73
2023/04/27 04:28:53;;;;;;;0.70;0.70;;;;;;;11.51;100.00;100064.81;5088118;28;20297;-73
2023/04/27 04:31:20;;;;;;;0.80;0.80;;;;;;;11.07;100.00;100046.13;5087900;28;20198;-73
2023/04/27 04:33:48;;;;;;;1.42;1.42;;;;;;;11.25;100.00;100072.31;5089906;28;20232;-73
2023/04/27 04:36:15;;;;;;;0.80;0.80;;;;;;;11.24;100.00;100078.34;5057174;28;20194;-73
2023/04/27 04:38:42;;;;;;;0.60;0.60;;;;;;;11.26;100.00;100077.53;5093560;28;20654;-74
2023/04/27 04:41:09;;;;;;;1.33;1.33;;;;;;;11.34;100.00;100078.47;5093224;28;20240;-73
2023/04/27 04:43:36;;;;;;;0.80;0.80;;;;;;;11.14;100.00;100079.97;5093626;28;20562;-73
2023/04/27 04:46:02;;;;;;;0.70;0.70;;;;;;;10.98;100.00;100077.16;5093276;28;20230;-73
2023/04/27 04:48:29;;;;;;;0.70;0.70;;;;;;;11.16;100.00;100073.09;5092795;28;20198;-73
2023/04/27 04:50:57;;;;;;;0.68;0.68;;;;;;;11.07;100.00;100085.94;5093086;28;20206;-73
2023/04/27 04:53:25;;;;;;;0.65;0.65;;;;;;;10.97;100.00;100073.69;5093063;28;20627;-73
2023/04/27 04:55:51;;;;;;;0.70;0.70;;;;;;;11.10;100.00;100078.19;5087552;28;20190;-74
2023/04/27 04:58:18;;;;;;;0.60;0.60;;;;;;;11.31;100.00;100082.75;5082048;28;20210;-73
2023/04/27 05:00:45;;;;;;;0.70;0.70;;;;;;;11.31;100.00;100091.41;5090743;28;20252;-74
2023/04/27 05:03:12;;;;;;;0.70;0.70;;;;;;;11.35;100.00;100089.72;5092666;28;20217;-74
2023/04/27 05:05:38;;;;;;;0.70;0.70;;;;;;;11.33;100.00;100070.69;5092228;28;20194;-73
2023/04/27 05:08:06;;;;;;;0.70;0.70;;;;;;;11.68;100.00;100100.50;5070398;28;20203;-73
2023/04/27 05:10:33;;;;;;;1.08;1.02;;;;;;;11.21;100.00;100094.75;5092491;28;20607;-73
2023/04/27 05:13:00;;;;;;;0.70;0.70;;;;;;;11.38;100.00;100093.25;5093646;28;20206;-73
2023/04/27 05:15:27;;;;;;;0.98;0.98;;;;;;;11.29;100.00;100076.69;5093287;28;20198;-72
2023/04/27 05:17:54;;;;;;;0.70;0.70;;;;;;;11.00;100.00;100014.06;5084032;28;20259;-71
2023/04/27 05:20:20;;;;;;;0.70;0.70;;;;;;;11.42;100.00;100096.75;5073048;28;20322;-71
2023/04/27 05:22:47;;;;;;;0.57;0.57;;;;;;;11.39;100.00;100102.78;5076992;28;20209;-73
2023/04/27 05:25:15;;;;;;;0.57;0.57;;;;;;;11.53;100.00;100107.25;5081686;28;20252;-73
2023/04/27 05:27:42;;;;;;;0.60;0.60;;;;;;;11.47;100.00;100105.47;5053906;28;20206;-73
2023/04/27 05:30:10;;;;;;;0.80;0.80;;;;;;;11.22;100.00;100086.13;5087184;28;20217;-73
2023/04/27 05:32:36;;;;;;;0.60;0.60;;;;;;;10.85;100.00;100024.25;5092652;28;20657;-73
2023/04/27 05:35:04;;;;;;;0.60;0.60;;;;;;;11.43;100.00;100112.34;5078297;28;20587;-73
2023/04/27 05:37:31;;;;;;;0.60;0.60;;;;;;;11.48;100.00;100116.72;5083418;28;20231;-73
2023/04/27 05:39:58;;;;;;;0.70;0.70;;;;;;;11.50;100.00;100115.00;5085820;28;20217;-73
2023/04/27 05:42:26;;;;;;;0.70;0.70;;;;;;;11.60;100.00;100116.84;5092229;28;20688;-73
2023/04/27 05:44:53;;;;;;;0.70;0.70;;;;;;;11.49;100.00;100113.25;5092123;28;20206;-72
2023/04/27 05:47:20;;;;;;;0.65;0.65;;;;;;;11.54;100.00;100120.25;5077957;28;20233;-73
2023/04/27 05:49:50;;;;;;;0.70;0.70;;;;;;;11.62;100.00;100120.34;5079708;28;20211;-69
2023/04/27 05:52:17;;;;;;;0.80;0.80;;;;;;;11.60;100.00;100120.31;5076890;28;20226;-71
2023/04/27 05:54:46;;;;;;;0.60;0.60;;;;;;;11.62;100.00;100120.34;5092191;28;20229;-72
2023/04/27 05:57:13;;;;;;;0.80;0.80;;;;;;;11.32;100.00;100113.94;5091988;28;20622;-72
2023/04/27 05:59:41;;;;;;;0.70;0.70;;;;;;;11.71;100.00;100128.25;5092011;28;20206;-72
2023/04/27 06:02:08;;;;;;;0.68;0.68;;;;;;;11.50;100.00;100104.63;5091649;28;20230;-72
2023/04/27 06:04:36;;;;;;;0.60;0.60;;;;;;;11.55;100.00;100129.81;5091939;28;20198;-72
2023/04/27 06:07:07;;;;;;;0.65;0.65;;;;;;;11.53;100.00;100135.81;5091647;28;20213;-72
2023/04/27 06:09:34;;;;;;;0.60;0.60;;;;;;;11.62;100.00;100125.56;5091898;28;20201;-75
2023/04/27 06:12:01;;;;;;;0.60;0.60;;;;;;;11.99;100.00;100126.81;5078759;28;20284;-74
2023/04/27 06:14:28;;;;;;;0.80;0.80;;;;;;;11.87;100.00;100119.81;5076489;28;20603;-74
2023/04/27 06:16:56;;;;;;;0.70;0.70;;;;;;;11.84;100.00;100128.41;5080295;28;20207;-74
2023/04/27 06:19:23;;;;;;;0.57;0.57;;;;;;;11.92;100.00;100134.56;5085530;28;20240;-73
2023/04/27 06:21:51;;;;;;;0.70;0.70;;;;;;;11.86;100.00;100125.84;5072746;28;20318;-75
2023/04/27 06:24:17;;;;;;;0.60;0.60;;;;;;;11.71;100.00;100120.47;5090680;28;20300;-73
2023/04/27 06:26:44;;;;;;;0.70;0.70;;;;;;;11.67;100.00;100129.03;5071371;28;20210;-74
2023/04/27 06:29:11;;;;;;;0.70;0.70;;;;;;;11.75;100.00;100132.66;5084679;28;20225;-73
2023/04/27 06:31:38;;;;;;;0.70;0.70;;;;;;;11.81;100.00;100132.69;5071520;28;20195;-73
2023/04/27 06:34:06;;;;;;;0.60;0.60;;;;;;;12.14;100.00;100130.44;5071000;28;20678;-74
2023/04/27 06:36:33;;;;;;;0.80;0.80;;;;;;;12.31;100.00;100117.59;5071200;28;20230;-74
2023/04/27 06:39:00;;;;;;;0.70;0.70;;;;;;;12.00;100.00;100059.28;5081240;28;20213;-74
2023/04/27 06:41:27;;;;;;;0.60;0.60;;;;;;;12.62;100.00;100119.59;5055801;28;20249;-75
2023/04/27 06:43:54;;;;;;;0.60;0.60;;;;;;;12.96;100.00;100133.69;5091133;28;20646;-75
2023/04/27 06:46:21;;;;;;;0.70;0.70;;;;;;;12.65;100.00;100149.97;5090444;28;20230;-74
2023/04/27 06:48:47;;;;;;;0.60;0.60;;;;;;;12.69;100.00;100150.00;5070641;28;20198;-74
2023/04/27 06:51:16;;;;;;;0.70;0.70;;;;;;;13.10;100.00;100141.59;5083876;28;20206;-74
2023/04/27 06:53:42;;;;;;;0.60;0.60;;;;;;;13.11;100.00;100152.03;5091047;28;20635;-74
2023/04/27 06:56:12;;;;;;;0.60;0.60;;;;;;;13.25;100.00;100150.38;5091085;28;20209;-75
2023/04/27 06:58:39;;;;;;;0.60;0.60;;;;;;;12.76;100.00;100130.97;5076118;28;20228;-75
2023/04/27 07:24:38;;;;;;;0.70;0.70;;;;;;;13.94;100.00;100150.66;5070736;28;20201;-74
2023/04/27 07:27:05;;;;;;;0.63;0.63;;;;;;;13.86;100.00;100155.84;5070787;28;20202;-74
2023/04/27 07:29:31;;;;;;;0.60;0.60;;;;;;;14.01;100.00;100155.03;5070506;28;20259;-73
2023/04/27 07:31:58;;;;;;;0.60;0.60;;;;;;;13.64;100.00;100157.50;5070454;28;20218;-73
2023/04/27 07:34:25;;;;;;;0.60;0.60;;;;;;;13.89;100.00;100158.44;5070478;28;20225;-74
2023/04/27 07:36:53;;;;;;;0.65;0.65;;;;;;;14.23;100.00;100168.06;5070581;28;20206;-73
2023/04/27 07:39:20;;;;;;;0.70;0.70;;;;;;;13.86;100.00;100168.88;5070586;28;20293;-74
2023/04/27 07:41:50;;;;;;;0.70;0.70;;;;;;;14.00;100.00;100161.97;5070531;28;20318;-73
2023/04/27 07:44:18;;;;;;;1.38;1.33;;;;;;;14.06;100.00;100161.09;5070427;28;20294;-74
2023/04/27 07:46:46;;;;;;;0.70;0.70;;;;;;;13.93;100.00;100161.94;5070472;28;20322;-74
2023/04/27 07:49:13;;;;;;;0.50;0.50;;;;;;;13.77;100.00;100163.63;5070303;28;20198;-75
2023/04/27 07:51:40;;;;;;;0.60;0.60;;;;;;;13.78;100.00;100160.16;5051869;28;20260;-74
2023/04/27 07:54:06;;;;;;;0.60;0.60;;;;;;;14.24;99.66;100169.81;5070661;28;20205;-74
2023/04/27 07:56:33;;;;;;;0.50;0.50;;;;;;;14.02;100.00;100172.41;5070384;28;20287;-74
2023/04/27 07:59:01;;;;;;;0.60;0.60;;;;;;;14.18;99.76;100171.56;5070219;28;20203;-73
2023/04/27 08:01:28;;;;;;;0.68;0.68;;;;;;;13.83;100.00;100174.09;5070143;28;20328;-75
2023/04/27 08:03:55;;;;;;;0.80;0.80;;;;;;;14.03;100.00;100172.41;5070309;28;20199;-76
2023/04/27 08:06:22;;;;;;;0.60;0.60;;;;;;;14.23;100.00;100170.69;5035284;28;20264;-72
2023/04/27 08:08:48;;;;;;;0.80;0.80;;;;;;;14.08;100.00;100144.59;5035376;28;20260;-73
2023/04/27 08:11:15;;;;;;;0.60;0.60;;;;;;;14.34;100.00;100179.44;5073980;28;20579;-74
2023/04/27 08:13:42;;;;;;;0.50;0.50;;;;;;;14.43;98.48;100182.94;5073871;28;20190;-74
2023/04/27 08:16:10;;;;;;;0.70;0.70;;;;;;;14.62;98.20;100176.88;5038781;28;20199;-74
2023/04/27 08:18:37;;;;;;;0.63;0.63;;;;;;;14.21;100.00;100182.88;5073898;28;20194;-74
2023/04/27 08:21:04;;;;;;;0.68;0.68;;;;;;;14.45;96.24;100186.44;5073943;28;20226;-74
2023/04/27 08:23:31;;;;;;;0.70;0.70;;;;;;;14.32;98.87;100175.94;5038692;28;20234;-74
2023/04/27 08:25:58;;;;;;;0.55;0.55;;;;;;;14.81;100.00;100181.19;5073734;28;20244;-73
2023/04/27 08:28:25;;;;;;;0.80;0.80;;;;;;;14.77;97.45;100176.84;5073714;28;20210;-74
2023/04/27 08:30:52;;;;;;;0.60;0.60;;;;;;;14.21;97.70;100195.91;5073569;28;20195;-73
2023/04/27 08:33:20;;;;;;;0.60;0.60;;;;;;;13.95;92.86;100187.13;5073698;28;20203;-72
2023/04/27 08:35:47;;;;;;;0.70;0.70;;;;;;;13.84;99.55;100181.88;5073072;28;20442;-69
2023/04/27 08:38:14;;;;;;;0.70;0.70;;;;;;;14.19;98.32;100168.97;5073683;28;20288;-71
2023/04/27 08:40:43;;;;;;;0.60;0.60;;;;;;;14.31;94.40;100184.63;5073402;28;20207;-69
2023/04/27 08:43:10;;;;;;;0.70;0.70;;;;;;;14.33;96.62;100167.25;5054697;28;20187;-71
2023/04/27 08:45:37;;;;;;;0.60;0.60;;;;;;;14.00;96.55;100167.19;5073048;28;20235;-71
2023/04/27 08:48:05;;;;;;;0.77;0.77;;;;;;;14.73;95.29;100178.56;5073370;28;20202;-72
2023/04/27 08:50:33;;;;;;;0.70;0.70;;;;;;;14.95;94.08;100158.53;5073243;28;20260;-69
2023/04/27 08:53:00;;;;;;;0.70;0.70;;;;;;;14.94;91.06;100182.06;5085038;28;20677;-72
2023/04/27 08:55:28;;;;;;;0.60;0.60;;;;;;;14.69;90.74;100174.25;5093023;28;20261;-72
2023/04/27 08:57:56;;;;;;;0.60;0.60;;;;;;;15.05;94.87;100173.34;5093027;28;20198;-70
2023/04/27 09:00:24;;;;;;;0.70;0.70;;;;;;;14.55;92.86;100177.72;5093108;28;20230;-69
2023/04/27 09:02:51;;;;;;;3.13;1.80;;;;;;;14.65;95.75;100171.63;5093278;28;20240;-71
2023/04/27 09:05:18;;;;;;;0.70;0.70;;;;;;;14.43;97.99;100173.38;5057757;28;20205;-71
2023/04/27 09:07:58;;;;;;;0.60;0.60;;;;;;;15.43;90.52;100173.25;5065057;28;20195;-70
2023/04/27 09:10:25;;;;;;;0.50;0.50;;;;;;;14.89;92.06;100164.66;5070529;28;20209;-70
2023/04/27 09:12:56;;;;;;;0.60;0.60;;;;;;;15.78;90.46;100170.53;5092761;28;20517;-70
2023/04/27 09:15:23;;;;;;;0.70;0.70;;;;;;;15.90;86.14;100167.88;5092662;28;20243;-69
2023/04/27 09:17:54;;;;;;;0.52;0.52;;;;;;;15.36;90.85;100180.25;5092649;28;20703;-70
2023/04/27 09:20:22;;;;;;;0.60;0.60;;;;;;;15.80;88.39;100147.88;5092204;28;20234;-70
2023/04/27 09:22:51;;;;;;;0.75;0.75;;;;;;;15.88;89.43;100164.38;5092588;28;20541;-71
2023/04/27 09:25:30;;;;;;;0.65;0.65;;;;;;;15.65;85.30;100155.78;5092737;28;20197;-69
2023/04/27 09:27:58;;;;;;;0.55;0.55;;;;;;;15.94;94.79;100150.41;5078740;28;20212;-75
2023/04/27 09:30:25;;;;;;;0.50;0.50;;;;;;;15.67;84.21;100099.13;5092820;28;20221;-68
2023/04/27 09:32:53;;;;;;;0.70;0.70;;;;;;;15.92;86.71;100153.03;5092372;28;20195;-71
2023/04/27 09:35:25;;;;;;;0.60;0.60;;;;;;;16.20;84.37;100131.03;5073591;28;20209;-71
2023/04/27 09:37:52;;;;;;;0.80;0.80;;;;;;;15.57;88.15;100147.97;5092496;28;20220;-71
2023/04/27 09:40:22;;;;;;;0.60;0.60;;;;;;;15.37;93.69;100136.69;5092379;28;20663;-71
2023/04/27 09:42:51;;;;;;;0.60;0.60;;;;;;;15.75;90.80;100141.78;5092329;28;20225;-71
2023/04/27 09:45:18;;;;;;;0.70;0.70;;;;;;;15.72;86.94;100144.41;5092300;28;20203;-72
2023/04/27 09:47:46;;;;;;;0.70;0.70;;;;;;;15.35;90.30;100139.31;5091996;28;20746;-72
2023/04/27 09:50:13;;;;;;;0.80;0.80;;;;;;;15.79;87.99;100140.91;5092126;28;20225;-71
2023/04/27 09:52:40;;;;;;;0.60;0.60;;;;;;;15.75;85.12;100133.94;5092263;28;20209;-71
2023/04/27 09:55:11;;;;;;;0.60;0.60;;;;;;;16.00;85.65;100130.31;5056826;28;20263;-72
2023/04/27 09:57:45;;;;;;;0.60;0.60;;;;;;;15.71;88.03;100133.09;5057431;28;20587;-72
2023/04/27 10:00:29;;;;;;;0.60;0.60;;;;;;;15.81;87.65;100133.91;5091858;28;20213;-73
2023/04/27 10:03:08;;;;;;;0.80;0.80;;;;;;;16.40;79.55;100136.16;5091895;28;20233;-73
2023/04/27 10:05:50;;;;;;;1.45;1.45;;;;;;;15.51;85.13;100134.06;5079000;28;20211;-73
2023/04/27 10:08:17;;;;;;;0.60;0.60;;;;;;;17.03;100.00;100123.38;5092124;28;20204;-73
2023/04/27 10:10:47;;;;;;;0.60;0.60;;;;;;;17.30;82.58;100131.78;5091871;28;20205;-73
2023/04/27 10:13:22;;;;;;;0.60;0.60;;;;;;;17.98;74.27;100137.94;5091867;28;20233;-74
2023/04/27 10:15:51;;;;;;;0.60;0.60;;;;;;;17.81;76.29;100137.31;5091790;28;20229;-74
2023/04/27 10:18:29;;;;;;;0.60;0.60;;;;;;;17.26;75.60;100116.13;5091756;28;20202;-74
2023/04/27 10:20:56;;;;;;;0.70;0.70;;;;;;;16.84;78.94;100120.94;5071646;28;20198;-75
2023/04/27 10:23:25;;;;;;;0.60;0.60;;;;;;;16.34;82.96;100131.81;5071718;28;20269;-76
2023/04/27 10:25:53;;;;;;;0.60;0.60;;;;;;;16.85;83.19;100134.91;5071734;28;20203;-76
2023/04/27 10:28:20;;;;;;;0.60;0.60;;;;;;;16.52;86.78;100132.53;5081082;28;20199;-74
2023/04/27 10:30:48;;;;;;;0.60;0.60;;;;;;;16.62;82.53;100136.88;5091525;28;20230;-75
2023/04/27 10:33:23;;;;;;;0.60;0.60;;;;;;;16.99;78.29;100126.91;5073462;28;20727;-75
2023/04/27 10:35:57;;;;;;;0.70;0.70;;;;;;;17.14;75.90;100111.03;5081117;28;20209;-76
2023/04/27 10:38:28;;;;;;;0.60;0.60;;;;;;;17.46;78.91;100135.09;5091365;28;20197;-75
2023/04/27 10:41:00;;;;;;;0.63;0.63;;;;;;;16.76;80.32;100129.75;5074295;28;20214;-74
2023/04/27 10:43:28;;;;;;;0.60;0.60;;;;;;;16.92;79.63;100139.19;5070808;28;20257;-74
2023/04/27 10:46:06;;;;;;;0.50;0.50;;;;;;;16.71;81.59;100137.66;5066030;28;20233;-74
2023/04/27 10:48:35;;;;;;;0.70;0.70;;;;;;;16.73;93.49;100143.72;5080374;28;20233;-73
2023/04/27 10:51:02;;;;;;;0.50;0.50;;;;;;;17.37;82.54;100143.09;5075225;28;20198;-74
2023/04/27 10:53:34;;;;;;;0.63;0.63;;;;;;;17.25;78.30;100146.72;5060350;28;20234;-73
2023/04/27 10:56:01;;;;;;;0.52;0.52;;;;;;;17.60;90.65;100137.59;5075971;28;20203;-75
2023/04/27 10:58:28;;;;;;;0.68;0.68;;;;;;;16.57;82.82;100136.03;5077922;28;20213;-74
2023/04/27 11:00:55;;;;;;;0.60;0.60;;;;;;;17.31;79.59;100138.78;5091044;28;20220;-74
2023/04/27 11:03:23;;;;;;;0.57;0.57;;;;;;;17.59;72.92;100134.09;5085555;28;20221;-74
2023/04/27 11:06:01;;;;;;;0.60;0.60;;;;;;;17.86;72.76;100135.50;5082096;28;20685;-75
2023/04/27 11:08:29;;;;;;;0.60;0.60;;;;;;;18.21;71.96;100130.59;5073151;28;20203;-76
2023/04/27 11:10:56;;;;;;;0.93;0.90;;;;;;;18.58;68.77;100132.69;5086327;28;20302;-75
2023/04/27 11:13:25;;;;;;;0.50;0.50;;;;;;;18.85;65.50;100132.19;5090766;28;20206;-73
2023/04/27 11:15:54;;;;;;;0.60;0.60;;;;;;;18.67;77.07;100132.50;5090900;28;20288;-75
2023/04/27 11:18:23;;;;;;;0.52;0.52;;;;;;;18.73;77.52;100133.28;5090902;28;20304;-76
2023/04/27 11:20:52;;;;;;;0.60;0.60;;;;;;;18.52;66.60;100122.25;5090745;28;20308;-73
2023/04/27 11:23:26;;;;;;;0.70;0.70;;;;;;;19.02;64.90;100126.63;5090530;28;20312;-74
2023/04/27 11:25:53;;;;;;;0.60;0.60;;;;;;;18.72;68.99;100121.06;5090965;28;20209;-75
2023/04/27 11:28:20;;;;;;;0.50;0.50;;;;;;;18.07;68.92;100123.81;5090905;28;20657;-76
2023/04/27 11:30:48;;;;;;;0.57;0.57;;;;;;;18.22;66.69;100129.72;5072059;28;20277;-74
2023/04/27 11:33:15;;;;;;;0.65;0.65;;;;;;;18.49;65.17;100127.53;5090836;28;20198;-73
2023/04/27 11:35:42;;;;;;;0.60;0.60;;;;;;;18.55;68.03;100130.13;5071960;28;20246;-73
2023/04/27 11:38:17;;;;;;;0.70;0.70;;;;;;;17.21;66.87;100131.91;5090671;28;20198;-72
2023/04/27 11:40:44;;;;;;;0.70;0.70;;;;;;;16.82;69.35;100120.09;5090945;28;20233;-74
2023/04/27 11:43:13;;;;;;;0.65;0.65;;;;;;;17.06;73.11;100100.63;5092604;28;20221;-74
2023/04/27 11:45:42;;;;;;;0.60;0.60;;;;;;;17.37;74.74;100118.63;5097604;28;20238;-73
2023/04/27 11:48:13;;;;;;;0.50;0.50;;;;;;;16.85;77.60;100120.06;5097447;28;20620;-73